TimeEST,TemperatureF,Dew PointF,Humidity,Sea Level PressureIn,VisibilityMPH,Wind Direction,Wind SpeedMPH,Gust SpeedMPH,PrecipitationIn,Events,Conditions,WindDirDegrees,DateUTC
12:53 AM,70.0,64.9,84,30.05,10.0,North,4.6,-,N/A,,Scattered Clouds,350,2013-01-21 05:53:00
1:53 AM,71.1,66.9,87,30.04,10.0,North,3.5,-,N/A,,Mostly Cloudy,10,2013-01-21 06:53:00
2:53 AM,71.1,66.9,87,30.02,10.0,North,4.6,-,N/A,,Overcast,350,2013-01-21 07:53:00
3:53 AM,71.1,66.9,87,30.03,10.0,North,5.8,-,N/A,,Mostly Cloudy,350,2013-01-21 08:53:00
4:53 AM,71.1,68.0,90,30.01,10.0,NNW,6.9,-,N/A,,Scattered Clouds,340,2013-01-21 09:53:00
5:53 AM,70.0,66.9,90,30.02,10.0,North,4.6,-,N/A,,Clear,350,2013-01-21 10:53:00
6:53 AM,69.1,66.0,90,30.04,10.0,North,3.5,-,N/A,,Partly Cloudy,360,2013-01-21 11:53:00
7:53 AM,70.0,68.0,93,30.05,10.0,NNW,3.5,-,N/A,,Mostly Cloudy,340,2013-01-21 12:53:00
8:53 AM,73.0,68.0,84,30.07,10.0,NNW,4.6,-,N/A,,Clear,330,2013-01-21 13:53:00
9:53 AM,75.0,68.0,79,30.10,10.0,NW,6.9,-,N/A,,Partly Cloudy,310,2013-01-21 14:53:00
10:07 AM,73.4,66.2,78,30.10,10.0,NNW,6.9,-,N/A,,Mostly Cloudy,330,2013-01-21 15:07:00
10:41 AM,75.2,66.2,73,30.10,10.0,NW,6.9,-,N/A,,Scattered Clouds,310,2013-01-21 15:41:00
10:53 AM,75.9,66.9,74,30.10,10.0,NW,6.9,-,N/A,,Partly Cloudy,320,2013-01-21 15:53:00
11:53 AM,75.9,66.0,71,30.09,10.0,NNW,9.2,-,N/A,,Clear,330,2013-01-21 16:53:00
12:53 PM,78.1,66.0,66,30.06,10.0,NW,9.2,-,N/A,,Clear,320,2013-01-21 17:53:00
1:53 PM,78.1,66.0,66,30.03,10.0,NNW,9.2,-,N/A,,Clear,330,2013-01-21 18:53:00
2:53 PM,77.0,66.0,69,30.02,10.0,NW,10.4,-,N/A,,Clear,320,2013-01-21 19:53:00
3:53 PM,75.0,64.9,71,30.03,10.0,NW,9.2,-,N/A,,Partly Cloudy,310,2013-01-21 20:53:00
4:53 PM,73.9,63.0,68,30.04,10.0,NW,11.5,-,N/A,,Clear,310,2013-01-21 21:53:00
5:53 PM,72.0,62.1,71,30.04,10.0,NW,9.2,-,N/A,,Clear,310,2013-01-21 22:53:00
6:53 PM,72.0,63.0,73,30.05,10.0,NW,12.7,-,N/A,,Partly Cloudy,320,2013-01-21 23:53:00
7:53 PM,71.1,64.0,78,30.06,10.0,NNW,10.4,-,N/A,,Partly Cloudy,330,2013-01-22 00:53:00
8:53 PM,71.1,64.0,78,30.07,10.0,NW,9.2,-,N/A,,Scattered Clouds,320,2013-01-22 01:53:00
9:53 PM,70.0,63.0,78,30.07,10.0,NNW,11.5,-,N/A,,Partly Cloudy,330,2013-01-22 02:53:00
10:53 PM,70.0,63.0,78,30.08,10.0,NNW,11.5,-,N/A,,Scattered Clouds,340,2013-01-22 03:53:00
11:53 PM,70.0,62.1,76,30.08,10.0,NNW,12.7,-,N/A,,Partly Cloudy,330,2013-01-22 04:53:00